createdAt,value
2023-05-15T00:01:55.989Z,7.97
2023-05-15T00:04:22.445Z,8.82
2023-05-15T00:06:48.912Z,8.43
2023-05-15T00:09:15.307Z,8.93
2023-05-15T00:11:41.759Z,9.05
2023-05-15T00:14:08.397Z,8.52
2023-05-15T00:16:34.904Z,10.77
2023-05-15T00:19:01.414Z,8.98
2023-05-15T00:21:27.997Z,8.60
2023-05-15T00:23:54.414Z,8.80
2023-05-15T00:26:23.287Z,9.73
2023-05-15T00:28:49.670Z,9.18
2023-05-15T00:31:16.786Z,9.45
2023-05-15T00:33:43.253Z,9.85
2023-05-15T00:36:09.699Z,9.98
2023-05-15T00:38:36.108Z,10.07
2023-05-15T00:41:02.571Z,11.00
2023-05-15T00:43:29.111Z,10.95
2023-05-15T00:45:55.675Z,10.82
2023-05-15T00:48:22.802Z,12.80
2023-05-15T00:50:52.384Z,10.25
2023-05-15T00:53:18.911Z,10.70
2023-05-15T00:55:49.814Z,10.27
2023-05-15T00:58:17.163Z,11.50
2023-05-15T01:00:43.764Z,12.60
2023-05-15T01:03:10.365Z,12.23
2023-05-15T01:05:37.111Z,11.65
2023-05-15T01:08:48.004Z,13.00
2023-05-15T01:11:15.609Z,14.05
2023-05-15T01:13:42.132Z,12.68
2023-05-15T01:16:09.040Z,13.15
2023-05-15T01:18:36.291Z,13.43
2023-05-15T01:21:05.732Z,12.40
2023-05-15T01:24:01.660Z,12.30
2023-05-15T01:26:49.921Z,12.75
2023-05-15T01:29:37.937Z,13.18
2023-05-15T01:32:09.232Z,13.38
2023-05-15T01:34:52.232Z,13.60
2023-05-15T01:37:22.317Z,14.18
2023-05-15T01:39:49.717Z,13.57
2023-05-15T01:42:18.040Z,13.00
2023-05-15T01:44:52.917Z,14.50
2023-05-15T01:47:22.461Z,14.73
2023-05-15T01:49:50.953Z,15.00
2023-05-15T01:52:32.896Z,14.65
2023-05-15T01:55:00.751Z,14.63
2023-05-15T01:57:28.212Z,14.07
2023-05-15T01:59:55.492Z,14.68
2023-05-15T02:02:22.421Z,14.80
2023-05-15T02:04:49.600Z,14.90
2023-05-15T02:07:16.401Z,14.40
2023-05-15T02:09:43.248Z,15.27
2023-05-15T02:12:10.717Z,14.93
2023-05-15T02:14:37.561Z,15.82
2023-05-15T02:17:03.972Z,15.20
2023-05-15T02:19:30.453Z,15.57
2023-05-15T02:21:56.826Z,16.17
2023-05-15T02:24:23.205Z,15.85
2023-05-15T02:27:13.750Z,16.27
2023-05-15T02:30:19.900Z,16.17
2023-05-15T02:33:12.325Z,15.82
2023-05-15T02:35:42.607Z,15.13
2023-05-15T02:38:12.004Z,14.95
2023-05-15T02:40:39.719Z,15.50
2023-05-15T02:43:07.238Z,15.80
2023-05-15T02:45:34.382Z,16.27
2023-05-15T02:48:01.468Z,16.05
2023-05-15T02:50:28.325Z,17.30
2023-05-15T02:53:05.222Z,17.42
2023-05-15T02:55:31.851Z,16.63
2023-05-15T02:57:58.922Z,17.52
2023-05-15T03:00:25.572Z,17.00
2023-05-15T03:02:52.045Z,16.95
2023-05-15T03:05:18.509Z,17.45
2023-05-15T03:07:44.936Z,17.02
2023-05-15T03:10:11.388Z,17.13
2023-05-15T03:12:38.783Z,15.27
2023-05-15T03:15:06.564Z,16.00
2023-05-15T03:17:33.127Z,16.00
2023-05-15T03:19:59.564Z,17.25
2023-05-15T03:22:25.955Z,17.25
2023-05-15T03:24:52.457Z,16.88
2023-05-15T03:27:18.893Z,17.30
2023-05-15T03:29:45.267Z,15.80
2023-05-15T03:32:11.659Z,18.20
2023-05-15T03:34:40.314Z,16.85
2023-05-15T03:37:07.405Z,16.98
2023-05-15T03:39:33.807Z,16.73
2023-05-15T03:42:00.195Z,17.08
2023-05-15T03:44:26.617Z,17.27
2023-05-15T03:46:53.038Z,17.85
2023-05-15T03:49:19.507Z,18.45
2023-05-15T03:51:45.933Z,19.42
2023-05-15T03:54:12.302Z,19.60
2023-05-15T03:56:39.041Z,19.52
2023-05-15T03:59:05.509Z,18.77
2023-05-15T04:01:31.993Z,17.90
2023-05-15T04:03:58.404Z,18.98
2023-05-15T04:06:24.849Z,18.05
2023-05-15T04:08:51.476Z,18.92
2023-05-15T04:11:18.216Z,18.33
2023-05-15T04:13:44.608Z,17.13
2023-05-15T04:16:10.992Z,17.30
2023-05-15T04:18:37.469Z,17.17
2023-05-15T04:21:03.879Z,16.98
2023-05-15T04:23:30.251Z,17.08
2023-05-15T04:25:56.992Z,16.80
2023-05-15T04:28:23.417Z,16.23
2023-05-15T04:30:49.761Z,17.00
2023-05-15T04:33:16.185Z,16.95
2023-05-15T04:35:43.170Z,17.55
2023-05-15T04:38:09.724Z,17.35
2023-05-15T04:40:36.207Z,17.30
2023-05-15T04:43:03.960Z,18.02
2023-05-15T04:45:30.381Z,17.85
2023-05-15T04:47:56.887Z,17.77
2023-05-15T04:50:23.450Z,17.90
2023-05-15T04:52:49.976Z,17.50
2023-05-15T04:55:16.403Z,16.83
2023-05-15T04:57:42.791Z,18.52
2023-05-15T05:00:12.911Z,18.90
2023-05-15T05:02:40.016Z,16.98
2023-05-15T05:05:07.570Z,17.60
2023-05-15T05:07:34.549Z,17.92
2023-05-15T05:10:01.260Z,16.42
2023-05-15T05:12:28.145Z,17.02
2023-05-15T05:14:55.645Z,18.00
2023-05-15T05:17:22.580Z,17.73
2023-05-15T05:19:48.988Z,17.23
2023-05-15T05:22:15.395Z,17.25
2023-05-15T05:24:41.794Z,16.48
2023-05-15T05:27:08.323Z,16.85
2023-05-15T05:29:35.066Z,18.60
2023-05-15T05:32:01.556Z,17.48
2023-05-15T05:34:28.240Z,16.35
2023-05-15T05:36:54.709Z,17.20
2023-05-15T05:39:21.298Z,16.55
2023-05-15T05:41:47.708Z,17.52
2023-05-15T05:44:14.210Z,15.95
2023-05-15T05:46:40.618Z,15.82
2023-05-15T05:49:07.040Z,15.93
2023-05-15T05:51:36.670Z,15.55
2023-05-15T05:54:03.073Z,14.88
2023-05-15T05:56:29.475Z,15.05
2023-05-15T05:58:56.526Z,13.90
2023-05-15T06:01:23.177Z,14.55
2023-05-15T06:03:49.663Z,14.55
2023-05-15T06:06:16.099Z,14.02
2023-05-15T06:08:42.460Z,13.73
2023-05-15T06:11:08.871Z,13.63
2023-05-15T06:13:35.791Z,13.40
2023-05-15T06:16:02.185Z,13.48
2023-05-15T06:18:28.732Z,11.57
2023-05-15T06:20:55.152Z,12.23
2023-05-15T06:23:23.649Z,12.70
2023-05-15T06:25:50.760Z,12.30
2023-05-15T06:28:17.244Z,13.25
2023-05-15T06:30:43.735Z,12.48
2023-05-15T06:33:10.504Z,12.65
2023-05-15T06:35:37.065Z,11.65
2023-05-15T06:38:03.992Z,12.30
2023-05-15T06:40:30.451Z,13.43
2023-05-15T06:42:56.844Z,11.68
2023-05-15T06:45:23.455Z,11.68
2023-05-15T06:47:50.000Z,12.00
2023-05-15T06:50:16.432Z,12.48
2023-05-15T06:52:42.819Z,13.52
2023-05-15T06:55:09.298Z,14.32
2023-05-15T06:57:35.738Z,11.88
2023-05-15T07:00:02.191Z,11.27
2023-05-15T07:02:28.562Z,11.02
2023-05-15T07:04:55.056Z,14.88
2023-05-15T07:07:21.494Z,12.93
2023-05-15T07:09:50.301Z,11.57
2023-05-15T07:12:16.678Z,11.43
2023-05-15T07:14:43.084Z,11.98
2023-05-15T07:17:09.605Z,12.02
2023-05-15T07:19:36.137Z,12.32
2023-05-15T07:22:03.531Z,12.90
2023-05-15T07:24:30.080Z,12.50
2023-05-15T07:26:58.902Z,12.25
2023-05-15T07:29:26.002Z,12.30
2023-05-15T07:31:52.761Z,12.13
2023-05-15T07:34:19.220Z,12.23
2023-05-15T07:36:45.771Z,11.55
2023-05-15T07:39:12.232Z,12.23
2023-05-15T07:41:38.911Z,17.20
2023-05-15T07:44:06.000Z,11.95
2023-05-15T07:46:33.231Z,12.57
2023-05-15T07:48:59.692Z,12.15
2023-05-15T07:51:26.100Z,12.15
2023-05-15T07:53:52.496Z,12.10
2023-05-15T07:56:18.921Z,12.75
2023-05-15T07:58:45.328Z,11.35
2023-05-15T08:01:12.102Z,13.10
2023-05-15T08:03:38.582Z,11.68
2023-05-15T08:06:05.223Z,11.40
2023-05-15T08:08:31.629Z,11.70
2023-05-15T08:10:57.997Z,12.00
2023-05-15T08:13:24.379Z,12.43
2023-05-15T08:15:50.789Z,11.20
2023-05-15T08:18:17.317Z,9.63
2023-05-15T08:20:43.746Z,9.23
2023-05-15T08:23:10.142Z,8.52
2023-05-15T08:25:36.546Z,9.02
2023-05-15T08:28:07.236Z,7.40
2023-05-15T08:30:33.647Z,9.90
2023-05-15T08:33:00.083Z,8.80
2023-05-15T08:35:26.823Z,8.73
2023-05-15T08:37:54.020Z,8.60
2023-05-15T08:40:25.630Z,9.75
2023-05-15T08:43:03.744Z,8.60
2023-05-15T08:45:30.643Z,9.80
2023-05-15T08:47:58.904Z,9.75
2023-05-15T08:50:26.321Z,11.07
2023-05-15T08:52:58.064Z,11.15
2023-05-15T08:55:24.799Z,11.68
2023-05-15T08:57:51.454Z,12.15
2023-05-15T09:00:20.945Z,12.60
2023-05-15T09:02:47.384Z,12.40
2023-05-15T09:05:13.806Z,12.43
2023-05-15T09:07:42.126Z,14.10
2023-05-15T09:10:09.637Z,12.82
2023-05-15T09:12:36.773Z,14.63
2023-05-15T09:15:17.640Z,15.15
2023-05-15T09:17:45.396Z,15.60
2023-05-15T09:20:30.622Z,15.23
2023-05-15T09:22:58.491Z,14.00
2023-05-15T09:25:52.762Z,15.15
2023-05-15T09:28:30.193Z,15.52
2023-05-15T09:30:59.126Z,15.15
2023-05-15T09:33:30.982Z,15.52
2023-05-15T09:35:57.444Z,18.40
2023-05-15T09:38:23.936Z,15.95
2023-05-15T09:40:50.504Z,17.52
2023-05-15T09:43:16.923Z,16.05
2023-05-15T09:45:43.389Z,20.80
2023-05-15T09:48:11.881Z,18.60
2023-05-15T09:50:39.539Z,19.27
2023-05-15T09:53:11.215Z,21.77
2023-05-15T09:55:37.600Z,21.25
2023-05-15T09:58:08.831Z,21.42
2023-05-15T10:00:35.747Z,20.20
2023-05-15T10:03:03.637Z,17.92
2023-05-15T10:05:42.654Z,19.10
2023-05-15T10:08:10.478Z,19.00
2023-05-15T10:10:36.886Z,18.63
2023-05-15T10:13:05.666Z,17.95
2023-05-15T10:15:32.806Z,15.85
2023-05-15T10:18:00.314Z,13.15
2023-05-15T10:20:27.351Z,12.68
2023-05-15T10:22:56.151Z,11.02
2023-05-15T10:25:34.646Z,8.88
2023-05-15T10:28:01.612Z,8.27
2023-05-15T10:30:28.593Z,10.98
2023-05-15T10:32:55.937Z,10.45
2023-05-15T10:35:22.492Z,10.88
2023-05-15T10:37:49.270Z,11.32
2023-05-15T10:40:17.407Z,8.82
2023-05-15T10:42:46.669Z,9.68
2023-05-15T10:45:13.408Z,8.98
2023-05-15T10:47:41.100Z,7.55
2023-05-15T10:50:08.262Z,8.93
2023-05-15T10:52:36.773Z,7.97
2023-05-15T10:55:06.694Z,10.35
2023-05-15T10:57:33.177Z,8.77
2023-05-15T11:00:00.212Z,10.15
2023-05-15T11:02:29.792Z,9.88
2023-05-15T11:04:56.908Z,8.30
2023-05-15T11:07:24.212Z,8.68
2023-05-15T11:09:50.769Z,8.63
2023-05-15T11:12:17.195Z,7.22
2023-05-15T11:15:04.402Z,7.20
2023-05-15T11:17:33.596Z,6.20
2023-05-15T11:20:00.188Z,6.57
2023-05-15T11:22:30.871Z,7.35
2023-05-15T11:25:01.350Z,9.48
2023-05-15T11:27:30.420Z,11.07
2023-05-15T11:30:13.695Z,11.02
2023-05-15T11:32:58.430Z,14.63
2023-05-15T11:35:29.129Z,11.02
2023-05-15T11:38:00.657Z,11.63
2023-05-15T11:40:29.006Z,13.63
2023-05-15T11:43:08.458Z,13.90
2023-05-15T11:45:38.432Z,17.58
2023-05-15T11:48:06.556Z,18.77
2023-05-15T11:50:34.492Z,20.02
2023-05-15T11:53:05.342Z,19.67
2023-05-15T11:55:33.544Z,20.77
2023-05-15T11:58:00.678Z,21.10
2023-05-15T12:00:27.568Z,21.40
2023-05-15T12:02:54.201Z,20.38
2023-05-15T12:05:21.037Z,18.58
2023-05-15T12:07:47.406Z,18.92
2023-05-15T12:10:14.218Z,21.85
2023-05-15T12:12:44.783Z,17.13
2023-05-15T12:15:12.628Z,18.70
2023-05-15T12:17:43.045Z,19.15
2023-05-15T12:20:18.039Z,18.63
2023-05-15T12:22:44.993Z,15.10
2023-05-15T12:25:12.359Z,16.45
2023-05-15T12:27:39.873Z,14.57
2023-05-15T12:30:07.063Z,11.55
2023-05-15T12:32:37.145Z,9.68
2023-05-15T12:35:04.939Z,11.18
2023-05-15T12:37:35.260Z,10.95
2023-05-15T12:40:11.537Z,13.38
2023-05-15T12:42:39.441Z,13.02
2023-05-15T12:45:13.105Z,12.07
2023-05-15T12:47:39.630Z,13.73
2023-05-15T12:50:20.475Z,9.57
2023-05-15T12:53:07.139Z,12.48
2023-05-15T12:55:35.873Z,12.40
2023-05-15T12:58:08.205Z,12.07
2023-05-15T13:00:35.850Z,13.57
2023-05-15T13:03:03.401Z,12.00
2023-05-15T13:05:33.776Z,11.23
2023-05-15T13:08:01.119Z,11.27
2023-05-15T13:10:27.747Z,10.48
2023-05-15T13:12:56.194Z,9.02
2023-05-15T13:15:25.473Z,10.60
2023-05-15T13:17:56.275Z,9.52
2023-05-15T13:20:23.766Z,9.95
2023-05-15T13:22:51.160Z,11.60
2023-05-15T13:25:19.267Z,10.18
2023-05-15T13:27:47.070Z,9.18
2023-05-15T13:30:17.262Z,12.02
2023-05-15T13:32:43.990Z,16.73
2023-05-15T13:35:10.766Z,11.77
2023-05-15T13:37:37.469Z,14.05
2023-05-15T13:40:09.808Z,12.88
2023-05-15T13:42:37.257Z,13.40
2023-05-15T13:45:07.768Z,14.70
2023-05-15T13:47:35.407Z,13.77
2023-05-15T13:50:04.983Z,13.95
2023-05-15T13:52:31.575Z,12.65
2023-05-15T13:54:57.963Z,11.18
2023-05-15T13:57:24.469Z,11.52
2023-05-15T13:59:50.946Z,9.90
2023-05-15T14:02:18.199Z,7.88
2023-05-15T14:04:46.613Z,8.07
2023-05-15T14:07:12.999Z,10.00
2023-05-15T14:09:39.432Z,11.30
2023-05-15T14:12:08.617Z,8.02
2023-05-15T14:14:35.276Z,12.07
2023-05-15T14:17:01.861Z,10.80
2023-05-15T14:19:28.426Z,10.65
2023-05-15T14:21:55.737Z,9.05
2023-05-15T14:24:22.193Z,11.43
2023-05-15T14:26:48.647Z,10.63
2023-05-15T14:29:15.026Z,11.10
2023-05-15T14:31:43.205Z,8.38
2023-05-15T14:34:09.661Z,9.52
2023-05-15T14:36:36.075Z,8.70
2023-05-15T14:39:02.537Z,8.25
2023-05-15T14:41:28.974Z,9.90
2023-05-15T14:43:55.440Z,9.00
2023-05-15T14:46:21.838Z,9.93
2023-05-15T14:48:48.345Z,12.63
2023-05-15T14:51:18.404Z,9.38
2023-05-15T14:53:46.146Z,10.57
2023-05-15T14:56:12.597Z,9.13
2023-05-15T14:58:41.697Z,10.18
2023-05-15T15:01:08.156Z,11.13
2023-05-15T15:03:34.635Z,15.43
2023-05-15T15:06:01.436Z,14.15
2023-05-15T15:08:27.873Z,11.95
2023-05-15T15:10:54.287Z,12.13
2023-05-15T15:13:21.013Z,13.77
2023-05-15T15:15:47.522Z,15.85
2023-05-15T15:18:13.949Z,14.63
2023-05-15T15:20:41.212Z,14.00
2023-05-15T15:23:07.672Z,15.18
2023-05-15T15:25:34.353Z,13.88
2023-05-15T15:28:00.885Z,11.82
2023-05-15T15:30:27.512Z,15.02
2023-05-15T15:32:55.669Z,12.32
2023-05-15T15:35:22.213Z,11.10
2023-05-15T15:37:48.620Z,12.15
2023-05-15T15:40:14.994Z,11.73
2023-05-15T15:42:41.392Z,11.70
2023-05-15T15:45:08.088Z,12.77
2023-05-15T15:47:34.579Z,12.63
2023-05-15T15:50:01.193Z,11.35
2023-05-15T15:52:28.187Z,12.48
2023-05-15T15:54:54.588Z,12.25
2023-05-15T15:57:21.543Z,15.15
2023-05-15T15:59:49.257Z,11.15
2023-05-15T16:02:17.386Z,16.63
2023-05-15T16:04:43.910Z,12.52
2023-05-15T16:07:10.321Z,13.20
2023-05-15T16:09:36.724Z,10.82
2023-05-15T16:12:03.636Z,9.43
2023-05-15T16:14:31.540Z,9.60
2023-05-15T16:16:58.574Z,10.20
2023-05-15T16:19:25.099Z,9.60
2023-05-15T16:21:51.604Z,10.20
2023-05-15T16:24:18.008Z,18.98
2023-05-15T16:26:44.497Z,10.60
2023-05-15T16:29:11.016Z,9.20
2023-05-15T16:31:38.266Z,9.23
2023-05-15T16:34:05.643Z,10.13
2023-05-15T16:36:32.505Z,9.73
2023-05-15T16:39:00.361Z,9.55
2023-05-15T16:41:27.033Z,9.18
2023-05-15T16:43:53.819Z,10.25
2023-05-15T16:46:20.751Z,10.93
2023-05-15T16:48:47.352Z,7.82
2023-05-15T16:51:14.025Z,9.55
2023-05-15T16:53:40.666Z,7.63
2023-05-15T16:56:07.601Z,6.40
2023-05-15T16:58:34.724Z,8.63
2023-05-15T17:01:01.280Z,5.85
2023-05-15T17:03:27.901Z,7.13
2023-05-15T17:05:54.885Z,8.95
2023-05-15T17:08:21.410Z,6.70
2023-05-15T17:10:47.763Z,7.13
2023-05-15T17:13:14.649Z,7.47
2023-05-15T17:15:41.272Z,6.75
2023-05-15T17:18:07.762Z,6.00
2023-05-15T17:20:34.354Z,6.03
2023-05-15T17:23:00.971Z,7.03
2023-05-15T17:25:27.714Z,6.93
2023-05-15T17:27:54.349Z,6.95
2023-05-15T17:30:20.857Z,7.57
2023-05-15T17:32:47.357Z,6.22
2023-05-15T17:35:13.779Z,7.22
2023-05-15T17:37:40.271Z,6.32
2023-05-15T17:40:07.312Z,7.40
2023-05-15T17:42:34.298Z,5.68
2023-05-15T17:45:00.659Z,5.53
2023-05-15T17:47:27.147Z,5.75
2023-05-15T17:49:53.645Z,5.65
2023-05-15T17:52:20.026Z,6.00
2023-05-15T17:54:46.465Z,5.70
2023-05-15T17:57:12.878Z,8.05
2023-05-15T17:59:39.271Z,6.93
2023-05-15T18:02:06.141Z,6.30
2023-05-15T18:04:32.573Z,5.43
2023-05-15T18:06:58.950Z,5.80
2023-05-15T18:09:26.072Z,5.22
2023-05-15T18:11:52.572Z,5.18
2023-05-15T18:14:18.997Z,5.07
2023-05-15T18:16:45.394Z,8.13
2023-05-15T18:19:11.850Z,5.18
2023-05-15T18:21:38.551Z,5.65
2023-05-15T18:24:05.097Z,5.63
2023-05-15T18:26:31.505Z,8.38
2023-05-15T18:28:57.874Z,5.32
2023-05-15T18:31:24.372Z,7.55
2023-05-15T18:33:50.802Z,5.43
2023-05-15T18:36:18.214Z,6.13
2023-05-15T18:38:45.218Z,5.53
2023-05-15T18:41:11.659Z,6.38
2023-05-15T18:43:38.048Z,7.03
2023-05-15T18:46:05.697Z,7.57
2023-05-15T18:48:32.078Z,5.80
2023-05-15T18:50:58.478Z,9.02
2023-05-15T18:53:25.522Z,6.72
2023-05-15T18:55:51.941Z,8.23
2023-05-15T18:58:18.319Z,6.57
2023-05-15T19:00:44.751Z,5.63
2023-05-15T19:03:11.443Z,5.95
2023-05-15T19:05:37.897Z,5.93
2023-05-15T19:08:04.508Z,6.03
2023-05-15T19:10:31.096Z,6.00
2023-05-15T19:12:57.882Z,6.45
2023-05-15T19:15:24.873Z,5.63
2023-05-15T19:17:51.819Z,6.20
2023-05-15T19:20:18.470Z,6.80
2023-05-15T19:22:44.844Z,8.10
2023-05-15T19:25:11.548Z,7.50
2023-05-15T19:27:37.949Z,9.52
2023-05-15T19:30:06.909Z,8.63
2023-05-15T19:32:33.676Z,8.07
2023-05-15T19:35:00.291Z,8.63
2023-05-15T19:37:26.651Z,9.40
2023-05-15T19:39:53.051Z,9.40
2023-05-15T19:42:19.422Z,10.38
2023-05-15T19:44:45.803Z,10.18
2023-05-15T19:47:12.272Z,9.80
2023-05-15T19:49:38.681Z,9.45
2023-05-15T19:52:05.623Z,12.57
2023-05-15T19:54:32.016Z,10.68
2023-05-15T19:57:02.434Z,10.27
2023-05-15T19:59:29.387Z,10.77
2023-05-15T20:01:55.910Z,11.77
2023-05-15T20:04:22.360Z,10.63
2023-05-15T20:06:48.746Z,11.38
2023-05-15T20:09:15.357Z,11.30
2023-05-15T20:11:41.745Z,11.57
2023-05-15T20:14:08.142Z,12.88
2023-05-15T20:16:34.596Z,11.98
2023-05-15T20:19:01.129Z,10.95
2023-05-15T20:21:27.513Z,11.35
2023-05-15T20:23:53.888Z,11.85
2023-05-15T20:26:22.104Z,13.10
2023-05-15T20:28:48.546Z,14.48
2023-05-15T20:31:15.132Z,12.43
2023-05-15T20:33:41.747Z,12.63
2023-05-15T20:36:08.138Z,12.25
2023-05-15T20:38:35.528Z,12.07
2023-05-15T20:41:02.140Z,16.75
2023-05-15T20:43:28.505Z,12.70
2023-05-15T20:45:55.096Z,12.25
2023-05-15T20:48:21.576Z,13.43
2023-05-15T20:50:47.959Z,12.85
2023-05-15T20:53:14.376Z,14.07
2023-05-15T20:55:40.822Z,14.00
2023-05-15T20:58:07.607Z,13.77
2023-05-15T21:00:34.420Z,14.45
2023-05-15T21:03:00.929Z,13.75
2023-05-15T21:05:27.387Z,14.43
2023-05-15T21:07:53.873Z,14.52
2023-05-15T21:10:20.288Z,15.02
2023-05-15T21:12:46.702Z,13.27
2023-05-15T21:15:13.192Z,14.25
2023-05-15T21:17:40.032Z,14.75
2023-05-15T21:20:07.169Z,14.45
2023-05-15T21:22:34.213Z,13.82
2023-05-15T21:25:00.605Z,14.70
2023-05-15T21:27:27.160Z,14.98
2023-05-15T21:29:53.528Z,15.45
2023-05-15T21:32:20.007Z,14.43
2023-05-15T21:34:46.729Z,13.90
2023-05-15T21:37:13.098Z,14.43
2023-05-15T21:39:39.437Z,15.93
2023-05-15T21:42:05.946Z,14.98
2023-05-15T21:44:32.302Z,15.27
2023-05-15T21:46:58.709Z,15.95
2023-05-15T21:49:25.082Z,16.58
2023-05-15T21:51:51.485Z,15.13
2023-05-15T21:54:17.919Z,16.10
2023-05-15T21:56:44.323Z,16.08
2023-05-15T21:59:13.978Z,15.60
2023-05-15T22:01:41.304Z,15.70
2023-05-15T22:04:07.815Z,16.40
2023-05-15T22:06:34.207Z,16.33
2023-05-15T22:09:01.167Z,17.23
2023-05-15T22:11:27.614Z,16.63
2023-05-15T22:13:54.014Z,16.30
2023-05-15T22:16:20.447Z,18.60
2023-05-15T22:18:47.584Z,17.58
2023-05-15T22:21:14.650Z,17.08
2023-05-15T22:23:41.016Z,16.67
2023-05-15T22:26:07.377Z,21.65
2023-05-15T22:28:33.757Z,17.02
2023-05-15T22:31:00.167Z,17.92
2023-05-15T22:33:27.056Z,21.65
2023-05-15T22:35:53.600Z,17.35
2023-05-15T22:38:20.433Z,18.90
2023-05-15T22:40:53.530Z,18.27
2023-05-15T22:43:19.992Z,17.67
2023-05-15T22:45:46.389Z,17.58
2023-05-15T22:48:12.769Z,16.63
2023-05-15T22:50:39.223Z,18.83
2023-05-15T22:53:05.602Z,18.45
2023-05-15T22:55:31.977Z,18.88
2023-05-15T22:57:58.367Z,17.02
2023-05-15T23:00:24.813Z,18.05
2023-05-15T23:02:55.041Z,17.23
2023-05-15T23:05:21.844Z,17.30
2023-05-15T23:07:48.614Z,20.85
2023-05-15T23:10:15.019Z,19.40
2023-05-15T23:12:42.436Z,20.88
2023-05-15T23:15:10.398Z,18.15
2023-05-15T23:17:36.855Z,20.02
2023-05-15T23:20:06.729Z,20.83
2023-05-15T23:22:33.129Z,18.92
2023-05-15T23:24:59.534Z,21.85
2023-05-15T23:27:25.905Z,19.13
2023-05-15T23:29:52.348Z,20.00
2023-05-15T23:32:18.832Z,19.55
2023-05-15T23:34:45.520Z,18.83
2023-05-15T23:37:11.905Z,19.30
2023-05-15T23:39:38.277Z,19.65
2023-05-15T23:42:04.801Z,19.20
2023-05-15T23:44:31.339Z,20.15
2023-05-15T23:46:57.808Z,19.67
2023-05-15T23:49:24.191Z,19.25
2023-05-15T23:51:50.957Z,17.25
2023-05-15T23:54:17.553Z,15.73
2023-05-15T23:56:44.022Z,17.60
2023-05-15T23:59:10.398Z,16.30
